createdAt,value
2023-07-15T00:01:35.372Z,2.90
2023-07-15T00:04:03.766Z,2.17
2023-07-15T00:06:32.183Z,2.10
2023-07-15T00:09:00.768Z,2.38
2023-07-15T00:11:30.433Z,2.40
2023-07-15T00:14:00.227Z,2.20
2023-07-15T00:16:28.720Z,2.30
2023-07-15T00:18:56.906Z,2.28
2023-07-15T00:21:25.912Z,2.20
2023-07-15T00:23:56.855Z,2.15
2023-07-15T00:26:26.357Z,2.28
2023-07-15T00:28:54.713Z,2.63
2023-07-15T00:31:24.352Z,1.88
2023-07-15T00:33:52.565Z,1.92
2023-07-15T00:36:21.067Z,2.58
2023-07-15T00:38:49.667Z,2.15
2023-07-15T00:41:19.568Z,2.35
2023-07-15T00:43:53.602Z,2.00
2023-07-15T00:46:38.818Z,2.28
2023-07-15T00:49:11.054Z,2.13
2023-07-15T00:51:39.929Z,1.92
2023-07-15T00:54:08.188Z,2.15
2023-07-15T00:56:37.248Z,2.10
2023-07-15T00:59:06.932Z,2.20
2023-07-15T01:01:36.599Z,2.15
2023-07-15T01:04:06.459Z,2.28
2023-07-15T01:06:36.508Z,2.35
2023-07-15T01:09:08.216Z,2.33
2023-07-15T01:11:36.242Z,2.05
2023-07-15T01:14:04.268Z,2.17
2023-07-15T01:16:33.424Z,1.95
2023-07-15T01:19:04.002Z,2.17
2023-07-15T01:21:33.734Z,2.17
2023-07-15T01:24:03.173Z,2.05
2023-07-15T01:26:31.219Z,2.20
2023-07-15T01:28:59.418Z,2.10
2023-07-15T01:31:28.069Z,1.83
2023-07-15T01:33:56.230Z,1.92
2023-07-15T01:36:25.582Z,2.33
2023-07-15T01:38:54.209Z,2.00
2023-07-15T01:41:23.547Z,2.40
2023-07-15T01:43:51.581Z,2.30
2023-07-15T01:46:19.716Z,1.98
2023-07-15T01:48:50.346Z,2.20
2023-07-15T01:51:18.624Z,1.92
2023-07-15T01:53:46.687Z,1.83
2023-07-15T01:56:15.027Z,1.70
2023-07-15T01:58:45.609Z,1.98
2023-07-15T02:01:13.819Z,1.70
2023-07-15T02:03:42.029Z,1.83
2023-07-15T02:06:11.188Z,1.73
2023-07-15T02:08:39.479Z,2.00
2023-07-15T02:11:07.490Z,1.70
2023-07-15T02:13:35.528Z,1.95
2023-07-15T02:16:05.210Z,1.60
2023-07-15T02:18:33.347Z,1.70
2023-07-15T02:21:01.401Z,1.90
2023-07-15T02:23:31.854Z,1.88
2023-07-15T02:25:59.894Z,1.92
2023-07-15T02:28:29.056Z,1.88
2023-07-15T02:30:57.383Z,1.67
2023-07-15T02:33:26.800Z,1.90
2023-07-15T02:35:54.816Z,1.80
2023-07-15T02:38:22.818Z,1.83
2023-07-15T02:40:51.052Z,1.77
2023-07-15T02:43:20.597Z,1.88
2023-07-15T02:45:51.911Z,2.05
2023-07-15T02:48:20.544Z,2.05
2023-07-15T02:50:53.740Z,2.00
2023-07-15T02:53:21.745Z,1.95
2023-07-15T02:55:50.745Z,2.05
2023-07-15T02:58:19.982Z,2.10
2023-07-15T03:00:48.248Z,1.98
2023-07-15T03:03:16.278Z,1.80
2023-07-15T03:05:47.036Z,1.88
2023-07-15T03:08:16.705Z,2.00
2023-07-15T03:10:45.199Z,1.80
2023-07-15T03:13:13.997Z,1.90
2023-07-15T03:15:43.029Z,1.83
2023-07-15T03:18:11.188Z,2.22
2023-07-15T03:20:39.311Z,2.17
2023-07-15T03:23:07.579Z,1.92
2023-07-15T03:25:38.866Z,1.97
2023-07-15T03:28:06.968Z,2.00
2023-07-15T03:30:35.878Z,1.90
2023-07-15T03:33:04.011Z,1.92
2023-07-15T03:35:32.126Z,2.10
2023-07-15T03:38:00.077Z,2.00
2023-07-15T03:40:28.173Z,1.77
2023-07-15T03:42:57.610Z,1.92
2023-07-15T03:45:25.584Z,1.90
2023-07-15T03:47:54.722Z,2.30
2023-07-15T03:50:22.809Z,1.95
2023-07-15T03:52:50.900Z,2.00
2023-07-15T03:55:18.966Z,2.10
2023-07-15T03:57:46.999Z,1.90
2023-07-15T04:00:18.714Z,1.83
2023-07-15T04:02:49.675Z,1.83
2023-07-15T04:05:18.000Z,1.90
2023-07-15T04:07:46.211Z,2.35
2023-07-15T04:10:14.200Z,2.00
2023-07-15T04:12:42.234Z,2.30
2023-07-15T04:15:10.474Z,2.45
2023-07-15T04:17:40.112Z,1.90
2023-07-15T04:20:15.401Z,1.83
2023-07-15T04:22:43.829Z,2.40
2023-07-15T04:25:13.486Z,2.42
2023-07-15T04:27:41.720Z,1.92
2023-07-15T04:30:10.800Z,2.25
2023-07-15T04:32:40.325Z,2.15
2023-07-15T04:35:08.757Z,2.13
2023-07-15T04:37:37.011Z,2.22
2023-07-15T04:40:06.436Z,2.47
2023-07-15T04:42:34.426Z,2.17
2023-07-15T04:45:03.119Z,2.45
2023-07-15T04:47:31.240Z,2.42
2023-07-15T04:50:00.693Z,1.63
2023-07-15T04:52:28.772Z,1.65
2023-07-15T04:54:56.798Z,2.08
2023-07-15T04:57:25.044Z,1.92
2023-07-15T04:59:54.857Z,1.83
2023-07-15T05:02:23.253Z,2.00
2023-07-15T05:04:51.497Z,1.67
2023-07-15T05:07:20.729Z,1.80
2023-07-15T05:09:50.455Z,2.15
2023-07-15T05:12:19.432Z,2.03
2023-07-15T05:14:47.434Z,2.00
2023-07-15T05:17:15.549Z,2.22
2023-07-15T05:19:43.576Z,2.00
2023-07-15T05:22:11.508Z,2.08
2023-07-15T05:24:40.924Z,2.35
2023-07-15T05:27:08.944Z,1.83
2023-07-15T05:29:36.842Z,2.03
2023-07-15T05:32:05.003Z,2.50
2023-07-15T05:34:32.971Z,2.00
2023-07-15T05:37:00.966Z,1.73
2023-07-15T05:39:29.339Z,2.00
2023-07-15T05:41:58.776Z,1.98
2023-07-15T05:44:26.820Z,2.20
2023-07-15T05:46:54.928Z,2.40
2023-07-15T05:49:22.922Z,2.25
2023-07-15T05:51:50.919Z,2.30
2023-07-15T05:54:18.854Z,2.10
2023-07-15T05:56:46.937Z,1.90
2023-07-15T05:59:16.538Z,2.10
2023-07-15T06:01:44.960Z,1.77
2023-07-15T06:04:13.082Z,1.90
2023-07-15T06:06:41.100Z,2.00
2023-07-15T06:09:09.207Z,1.85
2023-07-15T06:11:37.216Z,2.10
2023-07-15T06:14:05.482Z,2.00
2023-07-15T06:16:34.943Z,2.00
2023-07-15T06:19:02.969Z,2.38
2023-07-15T06:21:31.030Z,2.08
2023-07-15T06:23:58.984Z,2.15
2023-07-15T06:26:26.928Z,2.00
2023-07-15T06:28:54.991Z,2.17
2023-07-15T06:31:23.505Z,1.92
2023-07-15T06:33:53.115Z,2.10
2023-07-15T06:36:21.456Z,1.85
2023-07-15T06:38:49.534Z,1.88
2023-07-15T06:41:17.870Z,2.00
2023-07-15T06:43:46.572Z,2.10
2023-07-15T06:46:14.583Z,2.17
2023-07-15T06:48:44.602Z,2.00
2023-07-15T06:51:16.113Z,1.90
2023-07-15T06:53:44.463Z,1.83
2023-07-15T06:56:20.219Z,1.70
2023-07-15T06:58:49.196Z,2.25
2023-07-15T07:01:17.651Z,2.10
2023-07-15T07:03:47.169Z,2.17
2023-07-15T07:06:16.670Z,1.88
2023-07-15T07:08:44.689Z,2.20
2023-07-15T07:11:13.109Z,1.90
2023-07-15T07:13:41.272Z,1.95
2023-07-15T07:16:09.337Z,1.73
2023-07-15T07:18:37.493Z,1.90
2023-07-15T07:21:05.662Z,1.70
2023-07-15T07:23:35.044Z,1.92
2023-07-15T07:26:03.055Z,1.60
2023-07-15T07:28:41.400Z,1.90
2023-07-15T07:31:10.053Z,1.40
2023-07-15T07:33:38.126Z,1.60
2023-07-15T07:36:06.436Z,1.60
2023-07-15T07:38:36.166Z,1.60
2023-07-15T07:41:07.638Z,2.13
2023-07-15T07:43:35.973Z,1.45
2023-07-15T07:46:05.286Z,1.63
2023-07-15T07:48:33.515Z,1.90
2023-07-15T07:51:02.613Z,1.77
2023-07-15T07:53:30.807Z,1.60
2023-07-15T07:56:00.267Z,1.75
2023-07-15T07:58:28.482Z,1.77
2023-07-15T08:00:56.599Z,1.70
2023-07-15T08:03:24.815Z,2.10
2023-07-15T08:05:52.914Z,1.60
2023-07-15T08:08:20.890Z,1.80
2023-07-15T08:10:49.011Z,1.65
2023-07-15T08:13:18.533Z,1.50
2023-07-15T08:15:46.600Z,1.42
2023-07-15T08:18:14.721Z,1.63
2023-07-15T08:20:43.465Z,1.63
2023-07-15T08:23:11.660Z,1.65
2023-07-15T08:25:40.169Z,1.48
2023-07-15T08:28:08.351Z,1.30
2023-07-15T08:30:38.198Z,1.48
2023-07-15T08:33:06.757Z,1.60
2023-07-15T08:35:35.422Z,1.80
2023-07-15T08:38:03.929Z,1.70
2023-07-15T08:40:32.162Z,1.50
2023-07-15T08:43:00.185Z,1.92
2023-07-15T08:45:28.811Z,1.45
2023-07-15T08:47:58.299Z,1.40
2023-07-15T08:50:26.486Z,1.58
2023-07-15T08:52:54.568Z,1.25
2023-07-15T08:55:23.044Z,1.50
2023-07-15T08:57:51.300Z,1.08
2023-07-15T09:00:20.653Z,1.17
2023-07-15T09:02:48.952Z,1.30
2023-07-15T09:05:18.636Z,1.10
2023-07-15T09:07:47.722Z,1.30
2023-07-15T09:10:16.290Z,1.40
2023-07-15T09:12:48.084Z,1.20
2023-07-15T09:15:16.109Z,1.10
2023-07-15T09:17:52.025Z,1.33
2023-07-15T09:20:24.665Z,1.00
2023-07-15T09:22:53.972Z,1.30
2023-07-15T09:25:23.644Z,1.10
2023-07-15T09:27:51.937Z,1.20
2023-07-15T09:30:20.597Z,1.20
2023-07-15T09:32:49.071Z,1.20
2023-07-15T09:35:17.384Z,1.13
2023-07-15T09:37:49.680Z,1.10
2023-07-15T09:40:18.076Z,1.23
2023-07-15T09:42:53.160Z,1.33
2023-07-15T09:45:35.123Z,1.30
2023-07-15T09:48:03.577Z,0.98
2023-07-15T09:50:33.311Z,1.40
2023-07-15T09:53:02.844Z,1.63
2023-07-15T09:55:31.834Z,1.15
2023-07-15T09:58:02.932Z,1.33
2023-07-15T10:00:33.946Z,1.13
2023-07-15T10:03:03.118Z,1.23
2023-07-15T10:05:33.161Z,1.20
2023-07-15T10:08:02.555Z,1.13
2023-07-15T10:10:30.826Z,1.15
2023-07-15T10:12:58.801Z,1.95
2023-07-15T10:15:26.826Z,1.40
2023-07-15T10:17:54.963Z,1.17
2023-07-15T10:20:23.767Z,1.10
2023-07-15T10:22:52.791Z,1.27
2023-07-15T10:25:22.435Z,1.30
2023-07-15T10:27:50.451Z,1.33
2023-07-15T10:30:19.810Z,1.20
2023-07-15T10:33:04.737Z,1.27
2023-07-15T10:35:33.546Z,1.42
2023-07-15T10:38:04.138Z,1.20
2023-07-15T10:40:49.561Z,1.42
2023-07-15T10:43:18.720Z,1.55
2023-07-15T10:45:52.278Z,1.60
2023-07-15T10:48:20.429Z,1.60
2023-07-15T10:50:49.123Z,1.70
2023-07-15T10:53:20.835Z,1.42
2023-07-15T10:55:56.597Z,1.27
2023-07-15T10:58:24.904Z,1.67
2023-07-15T11:00:53.018Z,1.35
2023-07-15T11:03:22.067Z,1.00
2023-07-15T11:05:50.164Z,1.52
2023-07-15T11:08:20.493Z,1.20
2023-07-15T11:10:50.748Z,1.33
2023-07-15T11:13:20.160Z,1.10
2023-07-15T11:15:48.444Z,1.33
2023-07-15T11:18:17.288Z,1.30
2023-07-15T11:20:46.509Z,1.38
2023-07-15T11:23:17.339Z,1.30
2023-07-15T11:25:46.086Z,1.02
2023-07-15T11:28:14.145Z,1.35
2023-07-15T11:30:44.522Z,1.20
2023-07-15T11:33:12.938Z,1.30
2023-07-15T11:35:41.754Z,1.33
2023-07-15T11:38:13.679Z,0.80
2023-07-15T11:40:51.082Z,1.10
2023-07-15T11:43:19.717Z,1.20
2023-07-15T11:45:49.426Z,1.20
2023-07-15T11:48:21.147Z,1.20
2023-07-15T11:50:49.168Z,1.50
2023-07-15T11:53:27.345Z,1.40
2023-07-15T11:55:55.448Z,1.30
2023-07-15T11:58:39.105Z,1.80
2023-07-15T12:01:08.808Z,1.42
2023-07-15T12:03:36.986Z,1.50
2023-07-15T12:06:05.111Z,1.33
2023-07-15T12:08:33.170Z,1.63
2023-07-15T12:11:02.478Z,1.70
2023-07-15T12:13:30.439Z,1.48
2023-07-15T12:15:58.591Z,1.60
2023-07-15T12:18:27.939Z,1.52
2023-07-15T12:20:56.066Z,1.40
2023-07-15T12:23:24.131Z,1.38
2023-07-15T12:25:52.108Z,1.55
2023-07-15T12:28:20.129Z,1.30
2023-07-15T12:30:48.141Z,1.55
2023-07-15T12:33:16.307Z,1.55
2023-07-15T12:35:45.607Z,1.77
2023-07-15T12:38:13.554Z,1.70
2023-07-15T12:40:42.016Z,1.50
2023-07-15T12:43:10.134Z,1.33
2023-07-15T12:45:38.107Z,1.50
2023-07-15T12:48:06.738Z,1.50
2023-07-15T12:50:34.911Z,1.88
2023-07-15T12:53:04.353Z,1.55
2023-07-15T12:55:32.300Z,1.50
2023-07-15T12:58:00.233Z,1.30
2023-07-15T13:00:28.334Z,2.08
2023-07-15T13:02:56.541Z,1.50
2023-07-15T13:05:24.546Z,1.30
2023-07-15T13:07:52.542Z,1.50
2023-07-15T13:10:22.464Z,1.70
2023-07-15T13:12:50.441Z,1.58
2023-07-15T13:15:18.625Z,1.35
2023-07-15T13:17:46.885Z,1.40
2023-07-15T13:20:14.948Z,1.55
2023-07-15T13:22:43.392Z,1.50
2023-07-15T13:25:11.423Z,1.52
2023-07-15T13:27:41.233Z,1.50
2023-07-15T13:30:11.327Z,1.58
2023-07-15T13:32:39.597Z,1.67
2023-07-15T13:35:07.976Z,1.70
2023-07-15T13:37:36.089Z,1.42
2023-07-15T13:40:04.475Z,1.77
2023-07-15T13:42:32.481Z,1.50
2023-07-15T13:45:02.001Z,1.30
2023-07-15T13:47:30.030Z,1.38
2023-07-15T13:49:58.223Z,1.35
2023-07-15T13:52:26.330Z,1.95
2023-07-15T13:54:54.545Z,1.45
2023-07-15T13:57:22.538Z,1.73
2023-07-15T13:59:50.477Z,2.95
2023-07-15T14:02:20.118Z,1.75
2023-07-15T14:04:48.179Z,1.60
2023-07-15T14:07:16.465Z,1.55
2023-07-15T14:09:44.490Z,2.03
2023-07-15T14:12:12.506Z,1.70
2023-07-15T14:14:40.407Z,1.50
2023-07-15T14:17:09.106Z,1.63
2023-07-15T14:19:38.559Z,1.55
2023-07-15T14:22:16.591Z,1.70
2023-07-15T14:24:45.776Z,1.63
2023-07-15T14:27:15.178Z,1.25
2023-07-15T14:29:44.703Z,1.40
2023-07-15T14:32:12.880Z,1.37
2023-07-15T14:34:42.705Z,1.50
2023-07-15T14:37:10.803Z,1.55
2023-07-15T14:39:38.740Z,1.40
2023-07-15T14:42:06.765Z,1.40
2023-07-15T14:44:34.874Z,1.60
2023-07-15T14:47:03.117Z,1.35
2023-07-15T14:49:31.292Z,1.55
2023-07-15T14:52:00.788Z,1.50
2023-07-15T14:54:28.914Z,1.50
2023-07-15T14:56:56.944Z,1.40
2023-07-15T14:59:24.945Z,1.38
2023-07-15T15:01:53.028Z,1.50
2023-07-15T15:04:21.008Z,1.42
2023-07-15T15:06:51.538Z,1.05
2023-07-15T15:09:21.970Z,1.20
2023-07-15T15:11:49.992Z,1.50
2023-07-15T15:14:17.985Z,1.30
2023-07-15T15:16:46.082Z,1.30
2023-07-15T15:19:14.117Z,0.95
2023-07-15T15:21:42.107Z,1.10
2023-07-15T15:24:10.626Z,0.90
2023-07-15T15:26:40.020Z,1.10
2023-07-15T15:29:08.074Z,1.13
2023-07-15T15:31:36.070Z,1.23
2023-07-15T15:34:04.074Z,1.30
2023-07-15T15:36:32.103Z,1.30
2023-07-15T15:39:00.077Z,1.30
2023-07-15T15:41:27.956Z,1.45
2023-07-15T15:43:57.494Z,1.42
2023-07-15T15:46:25.500Z,1.13
2023-07-15T15:48:53.601Z,1.60
2023-07-15T15:51:22.367Z,1.70
2023-07-15T15:53:56.076Z,1.52
2023-07-15T15:56:24.193Z,1.30
2023-07-15T15:58:52.395Z,1.65
2023-07-15T16:01:21.712Z,1.65
2023-07-15T16:03:49.800Z,1.60
2023-07-15T16:06:18.142Z,1.30
2023-07-15T16:08:47.476Z,2.00
2023-07-15T16:11:15.852Z,1.20
2023-07-15T16:13:44.373Z,1.40
2023-07-15T16:16:12.563Z,1.58
2023-07-15T16:18:42.131Z,1.80
2023-07-15T16:21:10.279Z,1.80
2023-07-15T16:23:38.377Z,2.00
2023-07-15T16:26:06.296Z,1.95
2023-07-15T16:28:34.298Z,1.88
2023-07-15T16:31:02.266Z,1.90
2023-07-15T16:33:30.317Z,1.77
2023-07-15T16:35:59.753Z,1.90
2023-07-15T16:38:27.817Z,1.73
2023-07-15T16:40:55.786Z,1.80
2023-07-15T16:43:24.363Z,1.60
2023-07-15T16:45:52.718Z,2.20
2023-07-15T16:48:20.813Z,2.05
2023-07-15T16:50:48.777Z,1.70
2023-07-15T16:53:18.309Z,1.30
2023-07-15T16:55:46.298Z,1.47
2023-07-15T16:58:14.344Z,1.52
2023-07-15T17:00:42.365Z,1.60
2023-07-15T17:03:10.471Z,1.55
2023-07-15T17:05:38.645Z,1.60
2023-07-15T17:08:06.641Z,1.23
2023-07-15T17:10:36.004Z,1.60
2023-07-15T17:13:04.091Z,1.55
2023-07-15T17:15:32.127Z,1.48
2023-07-15T17:18:00.203Z,1.55
2023-07-15T17:20:28.245Z,1.50
2023-07-15T17:22:56.201Z,1.85
2023-07-15T17:25:24.282Z,1.70
2023-07-15T17:27:53.829Z,1.50
2023-07-15T17:30:21.897Z,1.55
2023-07-15T17:32:49.984Z,1.70
2023-07-15T17:35:18.174Z,1.65
2023-07-15T17:37:49.310Z,1.80
2023-07-15T17:40:17.414Z,1.60
2023-07-15T17:42:45.715Z,1.55
2023-07-15T17:45:15.198Z,1.92
2023-07-15T17:47:43.402Z,1.55
2023-07-15T17:50:11.665Z,1.58
2023-07-15T17:52:39.711Z,1.98
2023-07-15T17:55:23.299Z,1.77
2023-07-15T17:57:53.141Z,1.95
2023-07-15T18:00:25.103Z,2.00
2023-07-15T18:02:53.346Z,2.05
2023-07-15T18:05:21.671Z,1.95
2023-07-15T18:07:49.793Z,1.73
2023-07-15T18:10:17.847Z,2.20
2023-07-15T18:12:45.937Z,2.08
2023-07-15T18:15:14.924Z,2.20
2023-07-15T18:17:44.569Z,2.17
2023-07-15T18:20:12.901Z,1.80
2023-07-15T18:22:40.995Z,2.00
2023-07-15T18:25:09.404Z,1.92
2023-07-15T18:27:37.570Z,2.80
2023-07-15T18:30:06.229Z,2.53
2023-07-15T18:32:34.319Z,2.55
2023-07-15T18:35:03.876Z,1.60
2023-07-15T18:37:31.951Z,1.67
2023-07-15T18:39:59.987Z,1.85
2023-07-15T18:42:28.077Z,1.90
2023-07-15T18:44:56.290Z,1.83
2023-07-15T18:47:24.475Z,2.03
2023-07-15T18:49:52.417Z,1.90
2023-07-15T18:52:21.876Z,1.65
2023-07-15T18:54:49.970Z,1.60
2023-07-15T18:57:23.117Z,2.28
2023-07-15T18:59:51.991Z,1.80
2023-07-15T19:02:20.030Z,1.90
2023-07-15T19:04:49.436Z,1.83
2023-07-15T19:07:17.685Z,2.03
2023-07-15T19:09:47.208Z,2.38
2023-07-15T19:12:15.326Z,1.73
2023-07-15T19:14:43.417Z,1.88
2023-07-15T19:17:11.560Z,2.03
2023-07-15T19:19:39.753Z,2.47
2023-07-15T19:22:07.896Z,1.95
2023-07-15T19:24:35.929Z,2.40
2023-07-15T19:27:05.879Z,2.38
2023-07-15T19:29:37.353Z,2.33
2023-07-15T19:32:06.907Z,2.20
2023-07-15T19:34:35.283Z,2.65
2023-07-15T19:37:03.208Z,2.75
2023-07-15T19:39:31.203Z,3.10
2023-07-15T19:41:59.198Z,2.40
2023-07-15T19:44:28.503Z,3.25
2023-07-15T19:46:56.539Z,2.65
2023-07-15T19:49:24.533Z,2.88
2023-07-15T19:51:55.116Z,3.00
2023-07-15T19:54:23.176Z,2.80
2023-07-15T19:56:52.228Z,2.78
2023-07-15T19:59:20.367Z,2.90
2023-07-15T20:01:49.781Z,2.90
2023-07-15T20:04:21.103Z,2.90
2023-07-15T20:06:49.253Z,2.65
2023-07-15T20:09:17.574Z,3.42
2023-07-15T20:11:45.733Z,2.88
2023-07-15T20:14:13.665Z,2.78
2023-07-15T20:16:41.710Z,2.78
2023-07-15T20:19:11.276Z,2.90
2023-07-15T20:21:39.373Z,3.00
2023-07-15T20:24:07.503Z,3.05
2023-07-15T20:26:39.545Z,2.70
2023-07-15T20:31:35.529Z,2.90
2023-07-15T20:34:04.944Z,2.83
2023-07-15T20:36:34.281Z,2.95
2023-07-15T20:39:04.787Z,3.53
2023-07-15T20:41:33.771Z,2.90
2023-07-15T20:44:01.932Z,2.90
2023-07-15T20:46:30.149Z,3.38
2023-07-15T20:48:58.339Z,3.80
2023-07-15T20:51:26.524Z,3.50
2023-07-15T20:53:56.493Z,3.88
2023-07-15T20:56:24.486Z,2.97
2023-07-15T20:58:52.480Z,3.58
2023-07-15T21:01:20.472Z,3.42
2023-07-15T21:03:48.694Z,3.63
2023-07-15T21:06:17.228Z,4.57
2023-07-15T21:08:45.543Z,3.55
2023-07-15T21:11:17.160Z,3.70
2023-07-15T21:13:45.344Z,3.35
2023-07-15T21:16:13.637Z,3.17
2023-07-15T21:18:41.776Z,3.45
2023-07-15T21:21:09.952Z,3.75
2023-07-15T21:23:38.021Z,3.38
2023-07-15T21:26:07.681Z,3.17
2023-07-15T21:28:37.930Z,3.45
2023-07-15T21:31:05.955Z,3.40
2023-07-15T21:33:34.143Z,3.40
2023-07-15T21:36:02.227Z,3.63
2023-07-15T21:38:30.206Z,3.40
2023-07-15T21:40:58.274Z,3.53
2023-07-15T21:43:26.312Z,3.60
2023-07-15T21:45:55.729Z,3.75
2023-07-15T21:48:23.804Z,3.85
2023-07-15T21:50:51.851Z,4.50
2023-07-15T21:53:20.189Z,4.10
2023-07-15T21:55:48.199Z,3.92
2023-07-15T21:58:16.958Z,4.32
2023-07-15T22:00:45.004Z,4.22
2023-07-15T22:03:14.584Z,4.25
2023-07-15T22:05:44.061Z,4.40
2023-07-15T22:08:13.294Z,4.32
2023-07-15T22:10:41.291Z,4.43
2023-07-15T22:13:10.470Z,4.68
2023-07-15T22:15:38.554Z,4.30
2023-07-15T22:18:07.780Z,4.53
2023-07-15T22:20:37.204Z,4.47
2023-07-15T22:23:05.541Z,4.78
2023-07-15T22:25:33.693Z,4.93
2023-07-15T22:28:01.747Z,4.88
2023-07-15T22:30:30.037Z,4.40
2023-07-15T22:32:59.178Z,5.15
2023-07-15T22:35:27.268Z,5.00
2023-07-15T22:37:56.698Z,4.70
2023-07-15T22:40:27.456Z,5.40
2023-07-15T22:42:55.573Z,5.90
2023-07-15T22:45:23.477Z,4.80
2023-07-15T22:47:51.620Z,5.13
2023-07-15T22:50:19.796Z,5.60
2023-07-15T22:52:47.814Z,5.45
2023-07-15T22:55:18.161Z,5.57
2023-07-15T22:57:46.179Z,5.70
2023-07-15T23:00:14.983Z,5.53
2023-07-15T23:02:43.181Z,5.43
2023-07-15T23:05:11.537Z,5.63
2023-07-15T23:07:39.779Z,5.47
2023-07-15T23:10:08.573Z,5.65
2023-07-15T23:12:38.021Z,5.90
2023-07-15T23:15:06.422Z,5.63
2023-07-15T23:17:36.649Z,6.32
2023-07-15T23:20:06.895Z,5.90
2023-07-15T23:22:35.240Z,6.53
2023-07-15T23:25:03.776Z,6.13
2023-07-15T23:27:31.968Z,5.97
2023-07-15T23:30:01.336Z,7.30
2023-07-15T23:32:29.455Z,6.50
2023-07-15T23:34:57.941Z,6.43
2023-07-15T23:37:26.515Z,7.82
2023-07-15T23:39:55.373Z,7.38
2023-07-15T23:42:23.584Z,7.22
2023-07-15T23:44:51.657Z,7.80
2023-07-15T23:47:21.150Z,6.95
2023-07-15T23:49:49.653Z,7.63
2023-07-15T23:52:17.794Z,6.85
2023-07-15T23:54:45.914Z,6.93
2023-07-15T23:57:14.052Z,7.07
2023-07-15T23:59:42.122Z,7.10
